createdAt,value
2018-03-08T00:00:48.874Z,0
2018-03-08T00:01:48.890Z,0
2018-03-08T00:02:48.648Z,0
2018-03-08T00:03:48.917Z,0
2018-03-08T00:04:48.928Z,0
2018-03-08T00:05:48.940Z,0
2018-03-08T00:06:48.202Z,0
2018-03-08T00:07:48.974Z,0
2018-03-08T00:08:49.044Z,0
2018-03-08T00:09:48.496Z,0
2018-03-08T00:10:48.770Z,0
2018-03-08T00:11:48.778Z,0
2018-03-08T00:12:49.046Z,0
2018-03-08T00:13:48.803Z,0
2018-03-08T00:14:49.080Z,0
2018-03-08T00:15:49.089Z,0
2018-03-08T00:16:48.862Z,0
2018-03-08T00:17:48.631Z,0
2018-03-08T00:18:48.884Z,0
2018-03-08T00:19:48.641Z,0
2018-03-08T00:20:49.166Z,0
2018-03-08T00:21:48.678Z,0
2018-03-08T00:22:49.193Z,0
2018-03-08T00:23:49.259Z,0
2018-03-08T00:24:49.224Z,0
2018-03-08T00:25:49.244Z,0
2018-03-08T00:26:48.999Z,0
2018-03-08T00:27:48.754Z,0
2018-03-08T00:28:48.772Z,0
2018-03-08T00:29:49.043Z,0
2018-03-08T00:30:49.056Z,0
2018-03-08T00:31:49.072Z,0
2018-03-08T00:32:48.836Z,0
2018-03-08T00:33:49.097Z,0
2018-03-08T00:34:49.373Z,0
2018-03-08T00:35:49.378Z,0
2018-03-08T00:36:49.135Z,0
2018-03-08T00:37:49.159Z,0
2018-03-08T00:38:49.472Z,0
2018-03-08T00:39:49.182Z,0
2018-03-08T00:40:49.202Z,0
2018-03-08T00:41:49.210Z,0
2018-03-08T00:42:48.968Z,0
2018-03-08T00:43:49.243Z,0
2018-03-08T00:44:49.253Z,0
2018-03-08T00:45:49.268Z,0
2018-03-08T00:46:49.305Z,0
2018-03-08T00:47:49.044Z,0
2018-03-08T00:48:49.058Z,0
2018-03-08T00:49:49.324Z,0
2018-03-08T00:50:49.347Z,0
2018-03-08T00:51:49.350Z,0
2018-03-08T00:52:49.366Z,0
2018-03-08T00:53:48.880Z,0
2018-03-08T00:54:49.654Z,0
2018-03-08T00:55:49.462Z,0
2018-03-08T00:56:49.174Z,0
2018-03-08T00:57:49.443Z,0
2018-03-08T00:58:49.462Z,0
2018-03-08T00:59:49.468Z,0
2018-03-08T01:00:49.745Z,0
2018-03-08T01:01:49.250Z,0
2018-03-08T01:02:49.515Z,0
2018-03-08T01:03:49.542Z,0
2018-03-08T01:04:49.541Z,0
2018-03-08T01:05:49.559Z,0
2018-03-08T01:06:49.827Z,0
2018-03-08T01:07:49.605Z,0
2018-03-08T01:08:49.850Z,0
2018-03-08T01:09:49.362Z,0
2018-03-08T01:10:49.958Z,0
2018-03-08T01:11:49.645Z,0
2018-03-08T01:12:49.406Z,0
2018-03-08T01:13:49.172Z,0
2018-03-08T01:14:49.747Z,0
2018-03-08T01:15:49.715Z,0
2018-03-08T01:16:49.972Z,0
2018-03-08T01:17:49.733Z,0
2018-03-08T01:18:49.495Z,0
2018-03-08T01:19:49.511Z,0
2018-03-08T01:20:49.881Z,0
2018-03-08T01:21:50.051Z,0
2018-03-08T01:22:49.554Z,0
2018-03-08T01:23:49.823Z,0
2018-03-08T01:24:50.033Z,0
2018-03-08T01:25:49.646Z,0
2018-03-08T01:26:50.120Z,0
2018-03-08T01:27:49.631Z,0
2018-03-08T01:28:50.149Z,0
2018-03-08T01:29:49.659Z,0
2018-03-08T01:30:49.927Z,0
2018-03-08T01:31:49.946Z,0
2018-03-08T01:32:50.213Z,0
2018-03-08T01:33:50.227Z,0
2018-03-08T01:34:49.734Z,0
2018-03-08T01:35:50.255Z,0
2018-03-08T01:36:49.766Z,0
2018-03-08T01:37:50.276Z,0
2018-03-08T01:38:50.297Z,0
2018-03-08T01:39:50.066Z,0
2018-03-08T01:40:50.377Z,0
2018-03-08T01:41:50.341Z,0
2018-03-08T01:42:50.354Z,0
2018-03-08T01:43:50.115Z,0
2018-03-08T01:44:50.131Z,0
2018-03-08T01:45:50.155Z,0
2018-03-08T01:46:50.185Z,0
2018-03-08T01:47:50.177Z,0
2018-03-08T01:48:49.955Z,0
2018-03-08T01:49:50.464Z,0
2018-03-08T01:50:50.484Z,0
2018-03-08T01:51:50.500Z,0
2018-03-08T01:52:50.243Z,0
2018-03-08T01:53:50.512Z,0
2018-03-08T01:54:50.279Z,0
2018-03-08T01:55:50.606Z,0
2018-03-08T01:56:50.577Z,0
2018-03-08T01:57:50.589Z,0
2018-03-08T01:58:49.835Z,0
2018-03-08T01:59:50.613Z,0
2018-03-08T02:00:50.376Z,0
2018-03-08T02:01:50.396Z,0
2018-03-08T02:02:50.660Z,0
2018-03-08T02:03:50.168Z,0
2018-03-08T02:04:50.685Z,0
2018-03-08T02:05:50.461Z,0
2018-03-08T02:06:50.483Z,0
2018-03-08T02:07:50.727Z,0
2018-03-08T02:08:50.536Z,0
2018-03-08T02:09:50.775Z,0
2018-03-08T02:10:50.855Z,0
2018-03-08T02:11:50.793Z,0
2018-03-08T02:12:50.304Z,0
2018-03-08T02:13:50.824Z,0
2018-03-08T02:14:50.848Z,0
2018-03-08T02:15:50.859Z,0
2018-03-08T02:16:50.624Z,0
2018-03-08T02:17:50.900Z,0
2018-03-08T02:18:50.648Z,0
2018-03-08T02:19:50.922Z,0
2018-03-08T02:20:50.676Z,0
2018-03-08T02:21:50.731Z,0
2018-03-08T02:22:50.711Z,0
2018-03-08T02:23:50.726Z,0
2018-03-08T02:24:50.997Z,0
2018-03-08T02:25:51.044Z,0
2018-03-08T02:26:50.511Z,0
2018-03-08T02:27:50.781Z,0
2018-03-08T02:28:50.795Z,0
2018-03-08T02:29:50.810Z,0
2018-03-08T02:30:51.090Z,0
2018-03-08T02:31:50.848Z,0
2018-03-08T02:32:50.865Z,0
2018-03-08T02:33:50.622Z,0
2018-03-08T02:34:50.630Z,0
2018-03-08T02:35:50.651Z,0
2018-03-08T02:36:51.185Z,0
2018-03-08T02:37:51.210Z,0
2018-03-08T02:38:50.947Z,0
2018-03-08T02:39:50.733Z,0
2018-03-08T02:40:51.284Z,0
2018-03-08T02:41:51.243Z,0
2018-03-08T02:42:51.011Z,0
2018-03-08T02:43:51.027Z,0
2018-03-08T02:44:51.033Z,0
2018-03-08T02:45:50.541Z,0
2018-03-08T02:46:51.320Z,0
2018-03-08T02:47:51.337Z,0
2018-03-08T02:48:51.090Z,0
2018-03-08T02:49:51.106Z,0
2018-03-08T02:50:51.483Z,0
2018-03-08T02:51:51.158Z,0
2018-03-08T02:52:51.421Z,0
2018-03-08T02:53:51.420Z,0
2018-03-08T02:54:51.184Z,0
2018-03-08T02:55:51.246Z,0
2018-03-08T02:56:51.476Z,0
2018-03-08T02:57:51.475Z,0
2018-03-08T02:58:51.246Z,0
2018-03-08T02:59:51.258Z,0
2018-03-08T03:00:51.268Z,0
2018-03-08T03:01:51.286Z,0
2018-03-08T03:02:50.788Z,0
2018-03-08T03:03:51.625Z,0
2018-03-08T03:04:51.333Z,0
2018-03-08T03:05:51.401Z,0
2018-03-08T03:06:51.624Z,0
2018-03-08T03:07:51.370Z,0
2018-03-08T03:08:51.640Z,0
2018-03-08T03:09:51.862Z,0
2018-03-08T03:10:51.466Z,0
2018-03-08T03:11:51.427Z,0
2018-03-08T03:12:51.445Z,0
2018-03-08T03:13:51.712Z,0
2018-03-08T03:14:51.496Z,0
2018-03-08T03:15:51.743Z,0
2018-03-08T03:16:51.524Z,0
2018-03-08T03:17:51.781Z,0
2018-03-08T03:18:51.555Z,0
2018-03-08T03:19:51.551Z,0
2018-03-08T03:20:51.570Z,0
2018-03-08T03:21:51.837Z,0
2018-03-08T03:22:51.597Z,0
2018-03-08T03:23:51.868Z,0
2018-03-08T03:24:51.635Z,0
2018-03-08T03:25:51.907Z,0
2018-03-08T03:26:51.915Z,0
2018-03-08T03:27:51.925Z,0
2018-03-08T03:28:51.987Z,0
2018-03-08T03:29:51.701Z,0
2018-03-08T03:30:51.464Z,0
2018-03-08T03:31:51.479Z,0
2018-03-08T03:32:51.500Z,0
2018-03-08T03:33:51.773Z,0
2018-03-08T03:34:51.778Z,0
2018-03-08T03:35:51.838Z,0
2018-03-08T03:36:52.074Z,0
2018-03-08T03:37:52.080Z,0
2018-03-08T03:38:51.838Z,0
2018-03-08T03:39:52.103Z,0
2018-03-08T03:40:51.618Z,0
2018-03-08T03:41:52.149Z,0
2018-03-08T03:42:51.904Z,0
2018-03-08T03:43:51.721Z,0
2018-03-08T03:44:52.183Z,0
2018-03-08T03:45:51.692Z,0
2018-03-08T03:46:52.215Z,0
2018-03-08T03:47:51.717Z,0
2018-03-08T03:48:52.248Z,0
2018-03-08T03:49:52.260Z,0
2018-03-08T03:50:52.268Z,0
2018-03-08T03:51:52.294Z,0
2018-03-08T03:52:52.058Z,0
2018-03-08T03:53:52.068Z,0
2018-03-08T03:54:52.333Z,0
2018-03-08T03:55:52.346Z,0
2018-03-08T03:56:52.366Z,0
2018-03-08T03:57:52.152Z,0
2018-03-08T03:58:51.936Z,0
2018-03-08T03:59:51.909Z,0
2018-03-08T04:00:52.175Z,0
2018-03-08T04:01:51.915Z,0
2018-03-08T04:02:52.190Z,0
2018-03-08T04:03:52.204Z,0
2018-03-08T04:04:52.475Z,0
2018-03-08T04:05:52.499Z,0
2018-03-08T04:06:52.253Z,0
2018-03-08T04:07:52.522Z,0
2018-03-08T04:08:52.036Z,0
2018-03-08T04:09:52.050Z,0
2018-03-08T04:10:52.320Z,0
2018-03-08T04:11:52.329Z,0
2018-03-08T04:12:52.099Z,0
2018-03-08T04:13:52.671Z,0
2018-03-08T04:14:52.378Z,0
2018-03-08T04:15:52.135Z,0
2018-03-08T04:16:52.411Z,0
2018-03-08T04:17:52.188Z,0
2018-03-08T04:18:52.435Z,0
2018-03-08T04:19:52.454Z,0
2018-03-08T04:20:52.209Z,0
2018-03-08T04:21:52.488Z,0
2018-03-08T04:22:52.744Z,0
2018-03-08T04:23:52.512Z,0
2018-03-08T04:24:52.272Z,0
2018-03-08T04:25:52.544Z,0
2018-03-08T04:26:52.561Z,0
2018-03-08T04:27:52.319Z,0
2018-03-08T04:28:52.685Z,0
2018-03-08T04:29:52.601Z,0
2018-03-08T04:30:52.609Z,0
2018-03-08T04:31:52.927Z,0
2018-03-08T04:32:52.653Z,0
2018-03-08T04:33:52.654Z,0
2018-03-08T04:34:52.415Z,0
2018-03-08T04:35:52.433Z,0
2018-03-08T04:36:52.452Z,0
2018-03-08T04:37:52.974Z,0
2018-03-08T04:38:52.997Z,0
2018-03-08T04:39:52.997Z,0
2018-03-08T04:40:52.511Z,0
2018-03-08T04:41:52.519Z,0
2018-03-08T04:42:52.533Z,0
2018-03-08T04:43:52.801Z,0
2018-03-08T04:44:52.819Z,0
2018-03-08T04:45:53.130Z,0
2018-03-08T04:46:52.855Z,0
2018-03-08T04:47:53.122Z,0
2018-03-08T04:48:52.887Z,0
2018-03-08T04:49:53.152Z,0
2018-03-08T04:50:53.187Z,0
2018-03-08T04:51:52.933Z,0
2018-03-08T04:52:53.248Z,0
2018-03-08T04:53:53.204Z,0
2018-03-08T04:54:53.224Z,0
2018-03-08T04:55:53.246Z,0
2018-03-08T04:56:53.245Z,0
2018-03-08T04:57:53.011Z,0
2018-03-08T04:58:53.268Z,0
2018-03-08T04:59:53.284Z,0
2018-03-08T05:00:53.317Z,0
2018-03-08T05:01:53.069Z,0
2018-03-08T05:02:53.337Z,0
2018-03-08T05:03:52.836Z,0
2018-03-08T05:04:53.114Z,0
2018-03-08T05:05:53.175Z,0
2018-03-08T05:06:53.154Z,0
2018-03-08T05:07:53.415Z,0
2018-03-08T05:08:53.168Z,0
2018-03-08T05:09:53.442Z,0
2018-03-08T05:10:53.200Z,0
2018-03-08T05:11:53.213Z,0
2018-03-08T05:12:53.228Z,0
2018-03-08T05:13:53.243Z,0
2018-03-08T05:14:53.263Z,0
2018-03-08T05:15:53.019Z,0
2018-03-08T05:16:53.593Z,4
2018-03-08T05:17:53.580Z,4
2018-03-08T05:18:53.317Z,0
2018-03-08T05:19:53.346Z,4
2018-03-08T05:20:53.393Z,4
2018-03-08T05:21:53.612Z,4
2018-03-08T05:22:53.620Z,8
2018-03-08T05:23:53.720Z,4
2018-03-08T05:24:53.146Z,8
2018-03-08T05:25:53.672Z,8
2018-03-08T05:26:53.174Z,8
2018-03-08T05:27:53.697Z,12
2018-03-08T05:28:53.719Z,16
2018-03-08T05:29:53.728Z,20
2018-03-08T05:30:53.573Z,24
2018-03-08T05:31:53.250Z,28
2018-03-08T05:32:53.266Z,32
2018-03-08T05:33:53.279Z,40
2018-03-08T05:34:53.544Z,44
2018-03-08T05:35:53.814Z,48
2018-03-08T05:36:53.321Z,56
2018-03-08T05:37:54.688Z,64
2018-03-08T05:38:53.604Z,72
2018-03-08T05:39:53.365Z,80
2018-03-08T05:40:53.377Z,88
2018-03-08T05:41:53.648Z,100
2018-03-08T05:42:53.668Z,104
2018-03-08T05:43:53.676Z,112
2018-03-08T05:44:53.948Z,128
2018-03-08T05:45:53.709Z,140
2018-03-08T05:46:53.997Z,148
2018-03-08T05:47:53.737Z,152
2018-03-08T05:48:54.017Z,160
2018-03-08T05:49:53.761Z,176
2018-03-08T05:50:53.781Z,192
2018-03-08T05:51:54.055Z,208
2018-03-08T05:52:54.058Z,216
2018-03-08T05:53:54.078Z,224
2018-03-08T05:54:53.834Z,244
2018-03-08T05:55:53.599Z,260
2018-03-08T05:56:53.866Z,280
2018-03-08T05:57:54.183Z,312
2018-03-08T05:58:54.156Z,360
2018-03-08T05:59:53.651Z,408
2018-03-08T06:00:54.090Z,436
2018-03-08T06:01:54.191Z,456
2018-03-08T06:02:54.209Z,464
2018-03-08T06:03:53.971Z,472
2018-03-08T06:04:54.032Z,476
2018-03-08T06:05:54.004Z,480
2018-03-08T06:06:54.013Z,476
2018-03-08T06:07:54.028Z,476
2018-03-08T06:08:53.782Z,484
2018-03-08T06:09:54.308Z,524
2018-03-08T06:10:54.068Z,584
2018-03-08T06:11:53.831Z,636
2018-03-08T06:12:54.096Z,704
2018-03-08T06:13:54.116Z,740
2018-03-08T06:14:54.171Z,756
2018-03-08T06:15:53.888Z,792
2018-03-08T06:16:54.150Z,840
2018-03-08T06:17:54.181Z,896
2018-03-08T06:18:54.445Z,964
2018-03-08T06:19:54.215Z,1060
2018-03-08T06:20:54.462Z,1152
2018-03-08T06:21:54.232Z,1224
2018-03-08T06:22:53.988Z,1288
2018-03-08T06:23:53.748Z,1284
2018-03-08T06:24:54.521Z,1260
2018-03-08T06:25:54.546Z,1260
2018-03-08T06:26:54.555Z,1276
2018-03-08T06:27:54.579Z,1292
2018-03-08T06:28:54.336Z,1308
2018-03-08T06:29:54.347Z,1332
2018-03-08T06:30:54.409Z,1352
2018-03-08T06:31:54.631Z,1372
2018-03-08T06:32:54.655Z,1388
2018-03-08T06:33:54.654Z,1416
2018-03-08T06:34:54.677Z,1444
2018-03-08T06:35:54.691Z,1484
2018-03-08T06:36:54.708Z,1528
2018-03-08T06:37:54.547Z,1580
2018-03-08T06:38:54.479Z,1728
2018-03-08T06:39:54.254Z,1716
2018-03-08T06:40:54.763Z,2028
2018-03-08T06:41:54.768Z,1952
2018-03-08T06:42:54.532Z,2132
2018-03-08T06:43:54.569Z,2340
2018-03-08T06:44:54.591Z,2392
2018-03-08T06:45:54.846Z,2456
2018-03-08T06:46:54.860Z,2508
2018-03-08T06:47:55.032Z,2540
2018-03-08T06:48:54.629Z,2556
2018-03-08T06:49:54.898Z,2604
2018-03-08T06:50:54.917Z,2672
2018-03-08T06:51:54.673Z,2704
2018-03-08T06:52:55.063Z,2744
2018-03-08T06:53:54.714Z,2792
2018-03-08T06:54:54.968Z,2832
2018-03-08T06:55:54.475Z,2856
2018-03-08T06:56:54.762Z,2880
2018-03-08T06:57:55.021Z,2912
2018-03-08T06:58:55.022Z,2964
2018-03-08T06:59:55.048Z,2996
2018-03-08T07:00:55.064Z,3044
2018-03-08T07:01:55.072Z,3100
2018-03-08T07:02:54.886Z,3136
2018-03-08T07:03:54.845Z,3180
2018-03-08T07:04:54.887Z,3232
2018-03-08T07:05:55.171Z,3284
2018-03-08T07:06:54.941Z,3332
2018-03-08T07:07:54.908Z,3376
2018-03-08T07:08:55.172Z,3424
2018-03-08T07:09:55.009Z,3464
2018-03-08T07:10:55.207Z,3508
2018-03-08T07:11:55.231Z,3544
2018-03-08T07:12:54.746Z,3596
2018-03-08T07:13:55.256Z,3632
2018-03-08T07:14:55.013Z,3656
2018-03-08T07:15:55.444Z,3728
2018-03-08T07:16:55.042Z,3756
2018-03-08T07:17:55.312Z,3792
2018-03-08T07:18:55.075Z,3840
2018-03-08T07:19:55.347Z,3892
2018-03-08T07:20:55.105Z,3924
2018-03-08T07:21:55.369Z,3976
2018-03-08T07:22:55.382Z,3996
2018-03-08T07:23:55.142Z,4044
2018-03-08T07:24:55.161Z,4084
2018-03-08T07:25:55.434Z,4120
2018-03-08T07:26:55.199Z,4164
2018-03-08T07:27:55.462Z,4220
2018-03-08T07:28:55.475Z,4244
2018-03-08T07:29:54.728Z,4288
2018-03-08T07:30:55.251Z,4312
2018-03-08T07:31:55.516Z,4340
2018-03-08T07:32:55.547Z,4368
2018-03-08T07:33:55.041Z,4420
2018-03-08T07:34:55.060Z,4460
2018-03-08T07:35:55.075Z,4492
2018-03-08T07:36:55.090Z,4548
2018-03-08T07:37:55.369Z,4588
2018-03-08T07:38:55.372Z,4624
2018-03-08T07:39:55.143Z,4656
2018-03-08T07:40:55.154Z,4708
2018-03-08T07:41:55.416Z,4748
2018-03-08T07:42:55.181Z,4772
2018-03-08T07:43:55.716Z,4812
2018-03-08T07:44:55.458Z,4844
2018-03-08T07:45:54.971Z,4880
2018-03-08T07:46:55.240Z,4932
2018-03-08T07:47:55.505Z,4972
2018-03-08T07:48:55.257Z,4996
2018-03-08T07:49:55.535Z,5020
2018-03-08T07:50:55.796Z,5064
2018-03-08T07:51:55.307Z,5092
2018-03-08T07:52:55.588Z,5120
2018-03-08T07:53:55.603Z,5160
2018-03-08T07:54:55.614Z,5192
2018-03-08T07:55:55.646Z,5220
2018-03-08T07:56:55.643Z,5256
2018-03-08T07:57:55.437Z,5288
2018-03-08T07:58:55.424Z,5312
2018-03-08T07:59:55.946Z,5328
2018-03-08T08:00:55.202Z,5348
2018-03-08T08:01:55.731Z,5388
2018-03-08T08:02:55.490Z,5404
2018-03-08T08:03:55.761Z,5436
2018-03-08T08:04:55.519Z,5472
2018-03-08T08:05:56.045Z,5496
2018-03-08T08:06:55.798Z,5464
2018-03-08T08:07:56.066Z,5492
2018-03-08T08:08:55.824Z,5508
2018-03-08T08:09:55.839Z,5444
2018-03-08T08:10:55.863Z,5616
2018-03-08T08:11:55.625Z,5644
2018-03-08T08:12:55.903Z,5668
2018-03-08T08:13:55.665Z,5672
2018-03-08T08:14:56.190Z,5716
2018-03-08T08:15:56.068Z,5736
2018-03-08T08:16:55.710Z,5760
2018-03-08T08:17:56.233Z,5808
2018-03-08T08:18:55.739Z,5844
2018-03-08T08:19:56.010Z,5864
2018-03-08T08:20:56.102Z,5888
2018-03-08T08:21:56.051Z,5916
2018-03-08T08:22:56.111Z,5944
2018-03-08T08:23:56.064Z,5972
2018-03-08T08:24:56.347Z,6004
2018-03-08T08:25:56.358Z,6028
2018-03-08T08:26:56.119Z,6048
2018-03-08T08:27:56.174Z,6068
2018-03-08T08:28:56.415Z,6112
2018-03-08T08:29:56.437Z,6128
2018-03-08T08:30:56.186Z,6160
2018-03-08T08:31:56.202Z,6192
2018-03-08T08:32:56.469Z,6204
2018-03-08T08:33:56.524Z,6228
2018-03-08T08:34:56.255Z,6252
2018-03-08T08:35:56.306Z,6284
2018-03-08T08:36:56.057Z,6336
2018-03-08T08:37:56.345Z,6380
2018-03-08T08:38:56.311Z,6408
2018-03-08T08:39:56.346Z,6432
2018-03-08T08:40:56.590Z,6460
2018-03-08T08:41:56.604Z,6484
2018-03-08T08:42:56.372Z,6520
2018-03-08T08:43:56.390Z,6552
2018-03-08T08:44:56.413Z,6564
2018-03-08T08:45:56.172Z,6600
2018-03-08T08:46:56.449Z,6632
2018-03-08T08:47:56.717Z,6656
2018-03-08T08:48:56.748Z,6692
2018-03-08T08:49:56.495Z,6728
2018-03-08T08:50:56.763Z,6760
2018-03-08T08:51:56.784Z,6784
2018-03-08T08:52:56.846Z,6808
2018-03-08T08:53:56.306Z,6832
2018-03-08T08:54:56.825Z,6884
2018-03-08T08:55:56.852Z,6908
2018-03-08T08:56:56.597Z,6932
2018-03-08T08:57:56.871Z,6976
2018-03-08T08:58:56.632Z,7020
2018-03-08T08:59:56.683Z,7032
2018-03-08T09:00:56.662Z,7072
2018-03-08T09:01:56.693Z,7104
2018-03-08T09:02:56.704Z,7112
2018-03-08T09:03:56.215Z,7152
2018-03-08T09:04:56.737Z,7180
2018-03-08T09:05:57.016Z,7240
2018-03-08T09:06:56.519Z,7268
2018-03-08T09:07:57.096Z,7300
2018-03-08T09:08:57.069Z,7324
2018-03-08T09:09:57.078Z,7368
2018-03-08T09:10:57.088Z,7408
2018-03-08T09:11:56.600Z,7432
2018-03-08T09:12:56.868Z,7456
2018-03-08T09:13:56.641Z,7464
2018-03-08T09:14:56.917Z,7500
2018-03-08T09:15:56.925Z,7524
2018-03-08T09:16:57.191Z,7556
2018-03-08T09:17:57.207Z,7588
2018-03-08T09:18:57.290Z,7604
2018-03-08T09:19:57.255Z,7596
2018-03-08T09:20:57.273Z,7628
2018-03-08T09:21:57.285Z,7664
2018-03-08T09:22:57.046Z,7680
2018-03-08T09:23:57.114Z,7696
2018-03-08T09:24:57.090Z,7720
2018-03-08T09:25:57.100Z,7740
2018-03-08T09:26:57.117Z,7748
2018-03-08T09:27:57.139Z,7764
2018-03-08T09:28:57.398Z,7812
2018-03-08T09:29:56.911Z,7832
2018-03-08T09:30:56.935Z,7860
2018-03-08T09:31:57.500Z,7880
2018-03-08T09:32:57.217Z,7904
2018-03-08T09:33:57.615Z,7940
2018-03-08T09:34:57.245Z,7980
2018-03-08T09:35:57.017Z,8016
2018-03-08T09:36:57.287Z,8032
2018-03-08T09:37:56.797Z,8088
2018-03-08T09:38:57.365Z,8276
2018-03-08T09:39:57.092Z,8608
2018-03-08T09:40:57.106Z,8884
2018-03-08T09:41:57.627Z,8444
2018-03-08T09:42:57.675Z,9256
2018-03-08T09:43:56.910Z,7780
2018-03-08T09:44:57.696Z,9256
2018-03-08T09:45:57.704Z,6768
2018-03-08T09:46:57.728Z,9240
2018-03-08T09:47:57.744Z,9780
2018-03-08T09:48:57.507Z,6628
2018-03-08T09:49:57.774Z,6904
2018-03-08T09:50:57.530Z,8752
2018-03-08T09:51:57.864Z,8156
2018-03-08T09:52:57.569Z,8840
2018-03-08T09:53:57.634Z,12072
2018-03-08T09:54:57.607Z,10744
2018-03-08T09:55:57.619Z,12672
2018-03-08T09:56:57.889Z,12596
2018-03-08T09:57:57.177Z,9976
2018-03-08T09:58:58.184Z,10856
2018-03-08T09:59:57.995Z,13548
2018-03-08T10:00:57.712Z,14936
2018-03-08T10:01:57.503Z,13828
2018-03-08T10:02:57.773Z,16096
2018-03-08T10:03:58.045Z,17536
2018-03-08T10:04:57.556Z,15008
2018-03-08T10:05:57.826Z,14944
2018-03-08T10:06:58.101Z,14452
2018-03-08T10:07:57.360Z,13500
2018-03-08T10:08:57.932Z,12828
2018-03-08T10:09:57.902Z,12848
2018-03-08T10:10:57.668Z,16352
2018-03-08T10:11:58.193Z,16256
2018-03-08T10:12:58.043Z,16448
2018-03-08T10:13:58.238Z,17216
2018-03-08T10:14:58.002Z,17088
2018-03-08T10:15:58.020Z,16256
2018-03-08T10:16:58.293Z,14876
2018-03-08T10:17:58.315Z,13132
2018-03-08T10:18:58.126Z,12576
2018-03-08T10:19:58.402Z,11716
2018-03-08T10:20:58.118Z,11756
2018-03-08T10:21:58.387Z,11608
2018-03-08T10:22:58.163Z,11612
2018-03-08T10:23:58.232Z,10724
2018-03-08T10:24:58.201Z,12104
2018-03-08T10:25:58.493Z,24768
2018-03-08T10:26:58.495Z,13172
2018-03-08T10:27:58.260Z,15524
2018-03-08T10:28:58.602Z,34528
2018-03-08T10:29:58.553Z,12724
2018-03-08T10:30:58.573Z,11528
2018-03-08T10:31:58.337Z,14208
2018-03-08T10:32:58.610Z,10172
2018-03-08T10:33:58.386Z,10036
2018-03-08T10:34:58.655Z,10484
2018-03-08T10:35:58.422Z,10352
2018-03-08T10:36:58.447Z,9944
2018-03-08T10:37:58.725Z,9328
2018-03-08T10:38:58.783Z,9544
2018-03-08T10:39:58.760Z,9624
2018-03-08T10:40:58.589Z,9624
2018-03-08T10:41:58.283Z,9132
2018-03-08T10:42:58.567Z,9488
2018-03-08T10:43:58.834Z,8984
2018-03-08T10:44:58.607Z,9472
2018-03-08T10:45:58.640Z,10256
2018-03-08T10:46:58.898Z,10964
2018-03-08T10:47:58.667Z,10000
2018-03-08T10:49:07.044Z,8780
2018-03-08T10:49:58.967Z,7856
2018-03-08T10:50:58.214Z,7508
2018-03-08T10:51:58.736Z,7560
2018-03-08T10:52:58.505Z,7972
2018-03-08T10:53:59.087Z,8004
2018-03-08T10:54:58.808Z,8196
2018-03-08T10:55:59.072Z,34528
2018-03-08T10:56:58.589Z,8236
2018-03-08T10:57:58.865Z,6948
2018-03-08T10:58:58.872Z,7824
2018-03-08T10:59:59.153Z,7992
2018-03-08T11:00:59.173Z,7740
2018-03-08T11:01:59.195Z,9772
2018-03-08T11:02:58.961Z,9008
2018-03-08T11:03:59.235Z,9600
2018-03-08T11:04:59.251Z,9508
2018-03-08T11:05:58.762Z,9556
2018-03-08T11:06:59.297Z,22432
2018-03-08T11:07:59.058Z,7892
2018-03-08T11:08:59.148Z,7972
2018-03-08T11:09:59.349Z,8424
2018-03-08T11:10:59.378Z,15556
2018-03-08T11:11:59.396Z,14144
2018-03-08T11:12:59.410Z,31776
2018-03-08T11:13:59.427Z,41792
2018-03-08T11:14:59.446Z,11812
2018-03-08T11:15:59.220Z,12212
2018-03-08T11:16:59.487Z,13916
2018-03-08T11:17:59.254Z,39872
2018-03-08T11:18:59.280Z,33152
2018-03-08T11:19:59.294Z,17056
2018-03-08T11:20:59.334Z,13784
2018-03-08T11:21:59.081Z,11844
2018-03-08T11:22:59.358Z,12644
2018-03-08T11:23:59.692Z,44608
2018-03-08T11:24:59.147Z,45696
2018-03-08T11:25:59.164Z,13780
2018-03-08T11:26:59.690Z,16768
2018-03-08T11:27:59.208Z,13256
2018-03-08T11:28:59.489Z,53824
2018-03-08T11:29:59.865Z,53408
2018-03-08T11:30:59.781Z,47744
2018-03-08T11:31:59.557Z,51776
2018-03-08T11:32:59.575Z,50976
2018-03-08T11:33:59.855Z,43872
2018-03-08T11:34:59.625Z,12396
2018-03-08T11:35:59.654Z,17472
2018-03-08T11:36:59.930Z,16068
2018-03-08T11:37:59.458Z,61280
2018-03-08T11:39:00.031Z,56736
2018-03-08T11:39:59.759Z,54688
2018-03-08T11:41:01.748Z,56160
2018-03-08T11:41:59.803Z,61568
2018-03-08T11:43:00.111Z,66368
2018-03-08T11:43:59.851Z,69568
2018-03-08T11:45:00.929Z,68160
2018-03-08T11:46:00.160Z,67040
2018-03-08T11:46:59.682Z,66272
2018-03-08T11:48:00.222Z,66272
2018-03-08T11:49:00.412Z,65248
2018-03-08T11:50:01.410Z,67200
2018-03-08T11:51:00.045Z,70304
2018-03-08T11:52:00.331Z,16640
2018-03-08T11:53:00.355Z,17408
2018-03-08T11:54:02.241Z,16928
2018-03-08T11:55:00.737Z,64384
2018-03-08T11:56:00.440Z,70176
2018-03-08T11:57:00.468Z,72448
2018-03-08T11:58:00.502Z,73088
2018-03-08T11:59:00.524Z,74304
2018-03-08T12:00:00.300Z,69376
2018-03-08T12:01:00.127Z,71072
2018-03-08T12:02:00.629Z,72736
2018-03-08T12:03:00.387Z,75840
2018-03-08T12:04:00.668Z,77440
2018-03-08T12:05:00.446Z,77184
2018-03-08T12:06:00.855Z,77376
2018-03-08T12:07:00.244Z,79296
2018-03-08T12:08:00.531Z,80288
2018-03-08T12:09:00.882Z,79104
2018-03-08T12:10:00.882Z,77152
2018-03-08T12:11:00.879Z,80896
2018-03-08T12:12:01.059Z,83680
2018-03-08T12:13:00.939Z,82592
2018-03-08T12:14:00.461Z,73472
2018-03-08T12:15:00.744Z,69760
2018-03-08T12:16:00.779Z,80896
2018-03-08T12:17:01.129Z,69280
2018-03-08T12:18:01.006Z,61888
2018-03-08T12:19:01.125Z,23936
2018-03-08T12:20:01.149Z,68640
2018-03-08T12:21:01.185Z,85312
2018-03-08T12:22:00.963Z,83296
2018-03-08T12:23:00.996Z,90048
2018-03-08T12:24:01.276Z,91968
2018-03-08T12:25:00.847Z,87552
2018-03-08T12:26:00.575Z,87968
2018-03-08T12:27:00.860Z,71552
2018-03-08T12:28:01.410Z,90624
2018-03-08T12:29:01.178Z,90368
2018-03-08T12:30:01.466Z,79744
2018-03-08T12:31:01.496Z,52288
2018-03-08T12:32:01.285Z,38016
2018-03-08T12:33:01.589Z,62816
2018-03-08T12:34:00.840Z,65024
2018-03-08T12:35:01.631Z,84416
2018-03-08T12:36:01.406Z,74080
2018-03-08T12:37:01.700Z,72992
2018-03-08T12:38:01.721Z,78688
2018-03-08T12:39:01.241Z,58080
2018-03-08T12:40:01.581Z,50080
2018-03-08T12:41:01.559Z,69024
2018-03-08T12:42:02.042Z,80064
2018-03-08T12:43:01.872Z,76448
2018-03-08T12:44:01.903Z,63712
2018-03-08T12:45:01.940Z,49888
2018-03-08T12:46:01.463Z,55136
2018-03-08T12:47:01.747Z,26752
2018-03-08T12:48:01.525Z,40384
2018-03-08T12:49:01.809Z,58080
2018-03-08T12:50:01.590Z,48160
2018-03-08T12:51:02.127Z,56064
2018-03-08T12:52:01.907Z,43360
2018-03-08T12:53:01.947Z,48512
2018-03-08T12:54:01.962Z,42944
2018-03-08T12:55:02.051Z,49408
2018-03-08T12:56:02.381Z,40576
2018-03-08T12:57:01.793Z,19008
2018-03-08T12:58:02.367Z,42304
2018-03-08T12:59:02.123Z,45984
2018-03-08T13:00:02.165Z,18976
2018-03-08T13:01:02.213Z,19040
2018-03-08T13:02:02.205Z,23680
2018-03-08T13:03:02.241Z,29792
2018-03-08T13:04:02.519Z,30752
2018-03-08T13:05:02.317Z,26656
2018-03-08T13:06:02.585Z,26272
2018-03-08T13:07:02.606Z,23008
2018-03-08T13:08:02.380Z,20128
2018-03-08T13:09:02.424Z,23584
2018-03-08T13:10:02.486Z,31552
2018-03-08T13:11:02.210Z,37344
2018-03-08T13:12:02.232Z,46688
2018-03-08T13:13:02.521Z,33952
2018-03-08T13:14:02.799Z,33856
2018-03-08T13:15:02.578Z,31616
2018-03-08T13:16:02.342Z,31936
2018-03-08T13:17:02.120Z,34112
2018-03-08T13:18:02.663Z,42816
2018-03-08T13:19:02.678Z,48448
2018-03-08T13:20:02.963Z,49824
2018-03-08T13:21:02.752Z,55264
2018-03-08T13:22:02.760Z,64544
2018-03-08T13:23:03.041Z,60256
2018-03-08T13:24:02.553Z,71392
2018-03-08T13:25:02.889Z,74560
2018-03-08T13:26:03.132Z,65120
2018-03-08T13:27:02.891Z,70880
2018-03-08T13:28:02.931Z,75712
2018-03-08T13:29:03.205Z,74880
2018-03-08T13:30:02.725Z,74848
2018-03-08T13:31:03.254Z,70336
2018-03-08T13:32:03.284Z,63904
2018-03-08T13:33:03.335Z,60032
2018-03-08T13:34:03.343Z,48992
2018-03-08T13:35:03.430Z,49088
2018-03-08T13:36:03.429Z,53792
2018-03-08T13:37:03.448Z,58912
2018-03-08T13:38:03.471Z,54336
2018-03-08T13:39:03.243Z,68032
2018-03-08T13:40:03.285Z,75840
2018-03-08T13:41:02.799Z,78688
2018-03-08T13:42:03.590Z,81728
2018-03-08T13:43:03.106Z,84192
2018-03-08T13:44:03.648Z,88320
2018-03-08T13:45:03.173Z,88096
2018-03-08T13:46:03.709Z,88032
2018-03-08T13:47:03.495Z,86464